Time;durP1;ratioP1;P1;durP2;ratioP2;P2;SDS_P1;SDS_P2;PMS_P1;PMS_P2;Temp;Humidity;BMP_temperature;BMP_pressure;BME280_temperature;BME280_humidity;BME280_pressure;Samples;Min_cycle;Max_cycle;Signal;HPM_P1;HPM_P2
2023/10/30 00:04:15;;;;;;;3.75;1.35;;;23.40;69.40;;;;;;10450102;28;20200;-44
2023/10/30 00:09:18;;;;;;;2.40;1.60;;;23.40;69.20;;;;;;10434356;28;20260;-47
2023/10/30 00:14:22;;;;;;;3.65;1.55;;;23.40;69.20;;;;;;10424365;28;20910;-46
2023/10/30 00:19:27;;;;;;;3.42;1.67;;;23.40;69.80;;;;;;10432199;28;20248;-43
2023/10/30 00:24:32;;;;;;;3.55;1.45;;;23.40;69.10;;;;;;10430653;28;20620;-45
2023/10/30 00:29:39;;;;;;;3.88;1.75;;;23.40;69.20;;;;;;10434072;28;20259;-45
2023/10/30 00:34:44;;;;;;;4.03;1.50;;;23.40;69.10;;;;;;10438143;28;20256;-44
2023/10/30 00:39:48;;;;;;;3.00;1.35;;;23.40;69.00;;;;;;10435045;28;20243;-48
2023/10/30 00:44:52;;;;;;;3.33;1.60;;;23.40;69.10;;;;;;10438329;28;20227;-44
2023/10/30 00:49:57;;;;;;;5.13;1.40;;;23.40;68.90;;;;;;10442091;28;20199;-47
2023/10/30 00:55:00;;;;;;;2.05;1.10;;;23.40;68.90;;;;;;10444018;28;20309;-46
2023/10/30 01:00:05;;;;;;;2.95;1.35;;;23.40;68.90;;;;;;10443324;28;20272;-44
2023/10/30 01:05:10;;;;;;;3.10;1.10;;;23.40;68.90;;;;;;10446023;28;20199;-44
2023/10/30 01:10:14;;;;;;;4.13;1.30;;;23.40;68.80;;;;;;10447815;28;20667;-48
2023/10/30 01:15:18;;;;;;;2.35;1.48;;;23.40;68.90;;;;;;10441614;28;20727;-45
2023/10/30 01:20:22;;;;;;;5.20;1.70;;;23.40;68.80;;;;;;10421593;28;20224;-45
2023/10/30 01:25:26;;;;;;;2.90;1.42;;;23.40;68.70;;;;;;10430277;28;20738;-43
2023/10/30 01:30:30;;;;;;;3.15;1.38;;;23.40;68.80;;;;;;10435729;28;20231;-44
2023/10/30 01:35:36;;;;;;;3.13;1.38;;;23.40;68.70;;;;;;10432940;28;20254;-44
2023/10/30 01:40:47;;;;;;;2.42;1.30;;;23.40;69.40;;;;;;10435581;28;20227;-44
2023/10/30 01:45:50;;;;;;;2.72;1.30;;;23.40;68.60;;;;;;10440347;28;20299;-44
2023/10/30 01:50:56;;;;;;;2.97;1.35;;;23.40;68.60;;;;;;10428010;28;20224;-44
2023/10/30 01:56:01;;;;;;;3.83;1.17;;;23.30;68.50;;;;;;10441922;28;20270;-46
2023/10/30 02:01:05;;;;;;;3.97;1.45;;;23.40;68.60;;;;;;10444951;28;20227;-43
2023/10/30 02:06:10;;;;;;;3.75;1.58;;;23.40;68.50;;;;;;10431740;28;20773;-44
2023/10/30 02:11:13;;;;;;;1.95;1.10;;;23.30;68.40;;;;;;10437300;28;20239;-48
2023/10/30 02:16:17;;;;;;;3.80;1.25;;;23.40;68.50;;;;;;10440052;28;20251;-45
2023/10/30 02:21:23;;;;;;;2.50;1.25;;;23.40;68.50;;;;;;10439757;28;20616;-44
2023/10/30 02:26:28;;;;;;;1.52;1.20;;;23.40;68.40;;;;;;10437585;28;20240;-47
2023/10/30 02:31:32;;;;;;;2.97;1.20;;;23.40;68.40;;;;;;10437298;28;20736;-45
2023/10/30 02:36:35;;;;;;;2.58;1.20;;;23.40;68.40;;;;;;10441215;28;20772;-44
2023/10/30 02:41:40;;;;;;;3.75;1.40;;;23.40;68.30;;;;;;10439689;28;20652;-44
2023/10/30 02:46:44;;;;;;;2.05;0.98;;;23.40;69.10;;;;;;10441521;28;20290;-44
2023/10/30 02:51:47;;;;;;;3.50;1.27;;;23.30;68.10;;;;;;10442485;28;20219;-44
2023/10/30 02:56:52;;;;;;;2.28;1.10;;;23.30;68.10;;;;;;10442448;28;20243;-45
2023/10/30 03:01:56;;;;;;;5.05;1.50;;;23.40;68.20;;;;;;10448977;28;20261;-44
2023/10/30 03:06:59;;;;;;;3.05;1.10;;;23.40;68.20;;;;;;10452411;28;20583;-47
2023/10/30 03:12:05;;;;;;;3.63;1.25;;;23.40;68.20;;;;;;10447817;28;20211;-45
2023/10/30 03:17:08;;;;;;;1.83;0.95;;;23.40;68.10;;;;;;10424489;28;20274;-44
2023/10/30 03:22:12;;;;;;;3.00;1.10;;;23.40;68.10;;;;;;10430713;28;20278;-44
2023/10/30 03:27:17;;;;;;;2.20;1.00;;;23.40;68.10;;;;;;10434058;28;20244;-44
2023/10/30 03:32:20;;;;;;;2.38;1.10;;;23.40;68.00;;;;;;10427816;28;20274;-44
2023/10/30 03:37:24;;;;;;;2.67;1.23;;;23.30;67.90;;;;;;10434527;28;20250;-44
2023/10/30 03:42:29;;;;;;;2.60;1.10;;;23.40;68.00;;;;;;10438959;28;20232;-49
2023/10/30 03:47:32;;;;;;;3.47;1.30;;;23.30;67.90;;;;;;10440034;28;20277;-45
2023/10/30 03:52:36;;;;;;;3.50;1.10;;;23.40;67.90;;;;;;10440861;28;20227;-47
2023/10/30 03:57:43;;;;;;;4.35;1.08;;;23.30;67.80;;;;;;10444185;28;20682;-44
2023/10/30 04:02:47;;;;;;;1.98;1.38;;;23.30;67.80;;;;;;10444567;28;20207;-47
2023/10/30 04:07:51;;;;;;;3.67;1.35;;;23.30;67.80;;;;;;10445073;28;20243;-44
2023/10/30 04:12:56;;;;;;;3.20;1.27;;;23.40;67.90;;;;;;10441896;28;20231;-44
2023/10/30 04:17:59;;;;;;;1.95;1.20;;;23.30;67.80;;;;;;10447838;28;20772;-47
2023/10/30 04:23:03;;;;;;;2.95;1.30;;;23.40;67.80;;;;;;10445794;28;20293;-45
2023/10/30 04:28:08;;;;;;;2.78;1.10;;;23.40;67.80;;;;;;10445905;28;20697;-44
2023/10/30 04:33:11;;;;;;;4.32;1.92;;;23.30;67.60;;;;;;10447459;28;20227;-44
2023/10/30 04:38:15;;;;;;;2.72;1.10;;;23.30;67.60;;;;;;10443911;28;20293;-47
2023/10/30 04:43:20;;;;;;;1.92;1.30;;;23.40;67.70;;;;;;10439466;28;20238;-46
2023/10/30 04:48:23;;;;;;;1.77;0.90;;;23.30;67.60;;;;;;10442343;28;20357;-45
2023/10/30 04:53:29;;;;;;;7.25;1.35;;;23.40;67.80;;;;;;10442617;28;20251;-47
2023/10/30 04:58:34;;;;;;;2.67;1.33;;;23.30;68.50;;;;;;10439954;28;20247;-44
2023/10/30 05:03:37;;;;;;;2.25;0.90;;;23.40;67.60;;;;;;10434880;28;20204;-44
2023/10/30 05:08:41;;;;;;;5.70;1.23;;;23.40;67.60;;;;;;10446867;28;20617;-45
2023/10/30 05:13:46;;;;;;;3.08;1.38;;;23.30;67.60;;;;;;10444901;28;20246;-45
2023/10/30 05:18:49;;;;;;;4.07;1.40;;;23.40;67.60;;;;;;10438453;28;20238;-47
2023/10/30 05:23:53;;;;;;;3.05;1.30;;;23.40;67.60;;;;;;10445506;28;20219;-44
2023/10/30 05:28:58;;;;;;;2.38;1.08;;;23.30;67.40;;;;;;10436493;28;20243;-46
2023/10/30 05:34:01;;;;;;;1.80;1.20;;;23.40;67.50;;;;;;10432258;28;20254;-45
2023/10/30 05:39:06;;;;;;;2.30;1.13;;;23.40;67.50;;;;;;10430890;28;20266;-44
2023/10/30 05:44:11;;;;;;;3.15;1.08;;;23.40;67.50;;;;;;10436335;28;20293;-44
2023/10/30 05:49:14;;;;;;;10.98;1.33;;;23.40;67.40;;;;;;10422038;28;20707;-45
2023/10/30 05:54:18;;;;;;;6.32;1.27;;;23.30;67.40;;;;;;10434338;28;20543;-45
2023/10/30 05:59:23;;;;;;;4.70;1.45;;;23.30;67.30;;;;;;10427789;28;20290;-45
2023/10/30 06:04:26;;;;;;;4.75;1.17;;;23.30;67.30;;;;;;10425953;28;20223;-47
2023/10/30 06:09:30;;;;;;;19.27;2.65;;;23.30;67.30;;;;;;10428056;28;20274;-44
2023/10/30 06:14:35;;;;;;;26.05;3.08;;;23.40;67.50;;;;;;10437870;28;20291;-47
2023/10/30 06:19:40;;;;;;;19.15;2.42;;;23.40;67.50;;;;;;10443598;28;20256;-46
2023/10/30 06:24:44;;;;;;;18.40;2.42;;;23.50;67.50;;;;;;10433978;28;20219;-46
2023/10/30 06:29:49;;;;;;;7.82;1.60;;;23.50;67.50;;;;;;10440634;28;20247;-45
2023/10/30 06:34:56;;;;;;;12.70;1.95;;;23.50;67.50;;;;;;10444160;28;20304;-46
2023/10/30 06:39:59;;;;;;;9.52;1.77;;;23.50;67.40;;;;;;10445993;28;20200;-45
2023/10/30 06:45:06;;;;;;;5.07;1.50;;;23.50;67.50;;;;;;10446858;28;20196;-45
2023/10/30 06:50:10;;;;;;;6.50;1.70;;;23.40;67.20;;;;;;10402083;28;20812;-45
2023/10/30 06:55:13;;;;;;;8.35;1.67;;;23.50;67.40;;;;;;10437288;28;20247;-45
2023/10/30 07:00:19;;;;;;;4.85;1.58;;;23.40;67.30;;;;;;10450683;28;20204;-47
2023/10/30 07:05:23;;;;;;;3.65;1.35;;;23.40;67.30;;;;;;10439229;28;20320;-46
2023/10/30 07:10:26;;;;;;;6.65;1.58;;;23.40;67.20;;;;;;10436437;28;20235;-45
2023/10/30 07:15:31;;;;;;;6.90;1.58;;;23.40;67.20;;;;;;10436905;28;20277;-45
2023/10/30 07:20:35;;;;;;;4.22;1.60;;;23.40;67.20;;;;;;10438392;28;20258;-44
2023/10/30 07:25:38;;;;;;;8.23;1.60;;;23.40;67.30;;;;;;10436560;28;20246;-45
2023/10/30 07:30:45;;;;;;;6.53;1.58;;;23.50;67.50;;;;;;10444208;28;20214;-44
2023/10/30 07:35:53;;;;;;;6.47;1.60;;;23.40;67.30;;;;;;10440493;28;20231;-44
2023/10/30 07:40:58;;;;;;;5.88;1.70;;;23.50;67.30;;;;;;10448918;28;20218;-44
2023/10/30 07:46:05;;;;;;;4.35;1.30;;;23.40;67.20;;;;;;10447824;28;20243;-43
2023/10/30 07:51:09;;;;;;;7.47;1.98;;;23.40;67.20;;;;;;10452613;28;20204;-45
2023/10/30 07:56:14;;;;;;;6.25;1.75;;;23.40;68.00;;;;;;10442552;28;20228;-44
2023/10/30 08:01:20;;;;;;;3.72;1.60;;;23.40;67.20;;;;;;10444363;28;20338;-44
2023/10/30 08:06:26;;;;;;;6.95;1.55;;;23.40;67.20;;;;;;10452603;28;20273;-44
2023/10/30 08:11:32;;;;;;;3.38;1.58;;;23.40;67.20;;;;;;10447151;28;20227;-44
2023/10/30 08:16:38;;;;;;;3.97;1.75;;;23.40;67.10;;;;;;10446057;28;20258;-44
2023/10/30 08:21:42;;;;;;;4.18;1.73;;;23.40;67.10;;;;;;10452115;28;20199;-44
2023/10/30 08:26:46;;;;;;;3.65;1.40;;;23.40;67.10;;;;;;10452757;28;20216;-42
2023/10/30 08:31:51;;;;;;;5.30;1.42;;;23.40;67.10;;;;;;10446992;28;20207;-42
2023/10/30 08:36:55;;;;;;;4.53;1.50;;;23.40;67.10;;;;;;10445088;28;20284;-42
2023/10/30 08:42:00;;;;;;;5.45;1.42;;;23.40;67.00;;;;;;10445319;28;20570;-43
2023/10/30 08:47:06;;;;;;;7.32;1.52;;;23.40;67.00;;;;;;10451380;28;20234;-45
2023/10/30 08:52:11;;;;;;;3.42;1.60;;;23.40;67.00;;;;;;10445330;28;20257;-43
2023/10/30 08:57:19;;;;;;;6.18;1.77;;;23.40;67.10;;;;;;10463697;28;20227;-43
2023/10/30 09:02:25;;;;;;;5.28;1.40;;;23.40;67.00;;;;;;10453837;28;20204;-44
2023/10/30 09:07:29;;;;;;;3.92;1.27;;;23.50;67.10;;;;;;10451043;28;20269;-44
2023/10/30 09:12:35;;;;;;;3.72;1.58;;;23.50;67.00;;;;;;10447551;28;20215;-44
2023/10/30 09:17:41;;;;;;;2.58;1.27;;;23.50;67.00;;;;;;10448150;28;20223;-44
2023/10/30 09:22:45;;;;;;;4.45;1.58;;;23.50;66.90;;;;;;10450529;28;20207;-44
2023/10/30 09:27:50;;;;;;;3.17;1.50;;;23.50;66.90;;;;;;10444787;28;20223;-43
2023/10/30 09:32:55;;;;;;;3.55;1.30;;;23.50;66.90;;;;;;10450415;28;20261;-44
2023/10/30 09:37:59;;;;;;;3.97;1.50;;;23.50;66.90;;;;;;10449501;28;20673;-43
2023/10/30 09:43:07;;;;;;;4.32;1.58;;;23.50;66.90;;;;;;10449621;28;20203;-43
2023/10/30 09:48:16;;;;;;;3.53;1.73;;;23.50;66.90;;;;;;10441612;28;20285;-43
2023/10/30 09:53:20;;;;;;;2.20;1.15;;;23.50;66.80;;;;;;10454120;28;20252;-42
2023/10/30 09:58:25;;;;;;;4.30;1.67;;;23.50;66.80;;;;;;10456999;28;20768;-44
2023/10/30 10:03:30;;;;;;;3.08;1.50;;;23.50;66.80;;;;;;10459270;28;20199;-44
2023/10/30 10:08:35;;;;;;;4.43;1.60;;;23.50;66.80;;;;;;10456701;28;20270;-45
2023/10/30 10:13:43;;;;;;;4.05;1.42;;;23.50;66.70;;;;;;10457299;28;20200;-44
2023/10/30 10:19:25;;;;;;;3.97;1.65;;;23.50;66.70;;;;;;10453405;28;20223;-43
2023/10/30 10:24:30;;;;;;;4.57;1.98;;;23.50;66.70;;;;;;10450249;28;20204;-45
2023/10/30 10:29:35;;;;;;;4.45;1.50;;;23.50;66.70;;;;;;10454261;28;20246;-47
2023/10/30 10:34:42;;;;;;;11.55;2.30;;;23.50;66.70;;;;;;10470552;28;20208;-45
2023/10/30 10:39:49;;;;;;;15.00;2.10;;;23.50;66.70;;;;;;10468539;28;20242;-43
2023/10/30 10:44:56;;;;;;;7.10;1.90;;;23.50;66.70;;;;;;10465518;28;20200;-45
2023/10/30 10:50:03;;;;;;;5.53;1.55;;;23.50;66.70;;;;;;10458160;28;20200;-44
2023/10/30 10:55:09;;;;;;;4.47;1.50;;;23.60;66.80;;;;;;10458270;28;20210;-47
2023/10/30 11:00:15;;;;;;;6.18;2.08;;;23.60;66.80;;;;;;10466453;28;20220;-45
2023/10/30 11:05:21;;;;;;;7.10;2.28;;;23.60;66.80;;;;;;10462431;28;20232;-46
2023/10/30 11:10:32;;;;;;;7.05;2.25;;;23.60;66.80;;;;;;10458898;28;20203;-46
2023/10/30 11:15:42;;;;;;;10.57;2.30;;;23.60;66.80;;;;;;10465594;28;20223;-46
2023/10/30 11:20:54;;;;;;;7.93;1.90;;;23.60;66.80;;;;;;10471068;28;20241;-46
2023/10/30 11:25:57;;;;;;;4.82;1.98;;;23.60;66.80;;;;;;10456825;28;20264;-44
2023/10/30 11:31:07;;;;;;;14.45;2.60;;;23.60;66.90;;;;;;10450963;28;20207;-47
2023/10/30 11:36:33;;;;;;;9.40;2.53;;;23.60;66.90;;;;;;10455727;28;20235;-43
2023/10/30 11:41:37;;;;;;;8.68;2.60;;;23.70;67.10;;;;;;10445006;28;20227;-43
2023/10/30 11:46:41;;;;;;;10.20;3.05;;;23.80;66.90;;;;;;10450666;28;20241;-47
2023/10/30 11:51:51;;;;;;;8.73;2.35;;;23.90;66.90;;;;;;10475374;28;20249;-47
2023/10/30 11:56:55;;;;;;;7.32;2.08;;;23.90;66.90;;;;;;10457906;28;20278;-45
2023/10/30 12:01:59;;;;;;;8.23;2.75;;;23.90;66.80;;;;;;10442857;28;20200;-49
2023/10/30 12:07:05;;;;;;;9.82;2.30;;;23.90;66.70;;;;;;10442800;28;20288;-46
2023/10/30 12:12:09;;;;;;;10.45;2.65;;;24.00;66.80;;;;;;10449397;28;20260;-52
2023/10/30 12:17:14;;;;;;;6.30;2.10;;;24.00;66.70;;;;;;10440293;28;20255;-53
2023/10/30 12:22:22;;;;;;;5.35;1.85;;;24.20;66.80;;;;;;10445119;28;20235;-51
2023/10/30 12:27:26;;;;;;;2.58;1.50;;;24.00;66.60;;;;;;10436626;28;20708;-54
2023/10/30 12:32:31;;;;;;;4.80;1.80;;;23.90;66.50;;;;;;10433908;28;20234;-48
2023/10/30 12:37:38;;;;;;;5.93;1.90;;;23.80;66.40;;;;;;10442743;28;20255;-58
2023/10/30 12:42:43;;;;;;;4.85;1.70;;;23.80;66.50;;;;;;10434425;28;20235;-48
2023/10/30 12:47:49;;;;;;;4.47;1.63;;;23.70;66.40;;;;;;10417410;28;20327;-60
2023/10/30 12:52:54;;;;;;;4.43;1.30;;;23.70;66.50;;;;;;10438326;28;20249;-60
2023/10/30 12:57:58;;;;;;;4.45;1.27;;;23.70;66.50;;;;;;10381729;28;75756;-48
2023/10/30 13:03:02;;;;;;;2.88;1.40;;;23.70;66.50;;;;;;10397491;28;20780;-53
2023/10/30 13:08:07;;;;;;;5.47;1.48;;;23.70;66.50;;;;;;10392005;28;20294;-49
2023/10/30 13:13:15;;;;;;;6.72;1.67;;;23.70;66.50;;;;;;10395708;28;20243;-50
2023/10/30 13:18:19;;;;;;;6.57;1.50;;;23.70;66.60;;;;;;10398355;28;20256;-51
2023/10/30 13:23:24;;;;;;;5.45;1.50;;;23.70;66.60;;;;;;10397091;28;20228;-53
2023/10/30 13:28:27;;;;;;;6.82;1.80;;;23.70;66.70;;;;;;10401751;28;20286;-50
2023/10/30 13:33:31;;;;;;;4.55;1.45;;;23.70;66.80;;;;;;10403694;28;20311;-49
2023/10/30 13:38:37;;;;;;;8.68;1.90;;;23.60;66.70;;;;;;10401196;28;20325;-49
2023/10/30 13:43:41;;;;;;;3.85;1.42;;;23.60;66.80;;;;;;10392059;28;20231;-49
2023/10/30 13:48:45;;;;;;;3.70;1.30;;;23.60;66.90;;;;;;10397892;28;20262;-49
2023/10/30 13:53:53;;;;;;;4.85;1.50;;;23.50;66.80;;;;;;10399028;28;20204;-48
2023/10/30 13:58:57;;;;;;;5.65;1.40;;;23.50;66.80;;;;;;10398548;28;20270;-48
2023/10/30 14:04:00;;;;;;;2.75;1.00;;;23.50;66.80;;;;;;10402450;28;20213;-49
2023/10/30 14:09:06;;;;;;;3.88;1.30;;;23.40;66.80;;;;;;10392516;28;20398;-49
2023/10/30 14:14:10;;;;;;;2.83;1.15;;;23.40;66.80;;;;;;10402663;28;20257;-49
2023/10/30 14:19:13;;;;;;;4.68;1.35;;;23.40;66.80;;;;;;10385421;28;20327;-48
2023/10/30 14:24:18;;;;;;;2.85;1.20;;;23.40;66.80;;;;;;10395414;28;20232;-50
2023/10/30 14:29:22;;;;;;;2.78;1.23;;;23.40;66.80;;;;;;10405653;28;20247;-48
2023/10/30 14:34:26;;;;;;;3.25;1.38;;;23.40;66.80;;;;;;10408718;28;20254;-48
2023/10/30 14:39:30;;;;;;;3.25;1.05;;;23.40;66.80;;;;;;10395698;28;20777;-49
2023/10/30 14:44:34;;;;;;;2.45;1.13;;;23.30;66.70;;;;;;10401198;28;20208;-49
2023/10/30 14:49:38;;;;;;;4.38;1.20;;;23.40;66.90;;;;;;10401216;28;20254;-49
2023/10/30 14:54:43;;;;;;;2.53;1.08;;;23.30;66.80;;;;;;10404355;28;20196;-49
2023/10/30 14:59:46;;;;;;;1.77;0.75;;;23.30;66.80;;;;;;10397550;28;20259;-48
2023/10/30 15:04:50;;;;;;;2.38;1.00;;;23.30;66.80;;;;;;10404477;28;20243;-49
2023/10/30 15:09:55;;;;;;;2.95;1.05;;;23.30;66.80;;;;;;10394785;28;20208;-49
2023/10/30 15:14:59;;;;;;;1.92;0.90;;;23.30;66.80;;;;;;10408435;28;20209;-49
2023/10/30 15:20:03;;;;;;;1.52;0.98;;;23.30;66.80;;;;;;10404697;28;20649;-49
2023/10/30 15:25:09;;;;;;;1.83;1.05;;;23.30;66.80;;;;;;10404900;28;20620;-50
2023/10/30 15:30:13;;;;;;;2.95;1.02;;;23.30;66.80;;;;;;10390101;28;20495;-49
2023/10/30 15:35:19;;;;;;;2.08;0.90;;;23.30;66.90;;;;;;10396514;28;20255;-51
2023/10/30 15:40:24;;;;;;;3.22;1.23;;;23.30;66.80;;;;;;10393390;28;20255;-51
2023/10/30 15:45:28;;;;;;;3.42;1.20;;;23.30;66.90;;;;;;10382802;28;20291;-48
2023/10/30 15:50:31;;;;;;;2.30;1.08;;;23.30;66.80;;;;;;10393127;28;20223;-45
2023/10/30 15:55:36;;;;;;;3.65;1.40;;;23.40;66.80;;;;;;10393031;28;20252;-54
2023/10/30 16:00:45;;;;;;;1.80;1.05;;;23.40;66.80;;;;;;10391863;28;20306;-54
2023/10/30 16:05:48;;;;;;;1.75;1.00;;;23.40;66.80;;;;;;10393353;28;20302;-57
2023/10/30 16:11:10;;;;;;;2.40;1.10;;;23.40;66.80;;;;;;10396438;28;20293;-55
2023/10/30 16:16:33;;;;;;;3.13;1.30;;;23.40;66.80;;;;;;10397839;28;20269;-53
2023/10/30 16:21:40;;;;;;;1.98;0.95;;;23.40;66.90;;;;;;10392632;28;20260;-56
2023/10/30 16:26:45;;;;;;;1.33;0.80;;;23.30;66.80;;;;;;10389623;28;20321;-56
2023/10/30 16:31:48;;;;;;;2.63;0.90;;;23.30;66.80;;;;;;10397843;28;20224;-55
2023/10/30 16:36:52;;;;;;;1.35;0.80;;;23.30;66.80;;;;;;10391191;28;20285;-55
2023/10/30 16:41:57;;;;;;;1.70;0.82;;;23.30;66.80;;;;;;10391749;28;20256;-54
2023/10/30 16:47:00;;;;;;;1.92;0.70;;;23.30;66.90;;;;;;10400892;28;20220;-55
2023/10/30 16:52:04;;;;;;;2.05;1.00;;;23.30;66.90;;;;;;10393806;28;20282;-56
2023/10/30 16:57:09;;;;;;;3.22;0.80;;;23.30;66.90;;;;;;10397178;28;20252;-57
2023/10/30 17:02:13;;;;;;;2.17;1.00;;;23.30;66.90;;;;;;10393560;28;20262;-57
2023/10/30 17:07:17;;;;;;;2.95;0.90;;;23.30;66.90;;;;;;10394551;28;20247;-53
2023/10/30 17:12:22;;;;;;;2.10;0.82;;;23.30;67.00;;;;;;10396871;28;20301;-55
2023/10/30 17:17:27;;;;;;;2.63;1.05;;;23.30;67.00;;;;;;10390946;28;20216;-54
2023/10/30 17:22:31;;;;;;;3.38;0.90;;;23.30;67.00;;;;;;10391224;28;20350;-54
2023/10/30 17:27:36;;;;;;;2.97;1.02;;;23.30;67.00;;;;;;10395577;28;20251;-55
2023/10/30 17:32:39;;;;;;;11.25;1.83;;;23.30;67.10;;;;;;10393747;28;20282;-57
2023/10/30 17:37:43;;;;;;;7.32;1.48;;;23.30;67.00;;;;;;10392267;28;20294;-54
2023/10/30 17:42:48;;;;;;;9.38;1.35;;;23.30;67.10;;;;;;10396207;28;20275;-51
2023/10/30 17:47:51;;;;;;;5.75;1.40;;;23.30;67.10;;;;;;10387990;28;20697;-58
2023/10/30 17:52:55;;;;;;;3.85;1.25;;;23.30;67.10;;;;;;10396449;28;20582;-59
2023/10/30 17:58:00;;;;;;;7.88;1.42;;;23.30;67.10;;;;;;10399006;28;20302;-56
2023/10/30 18:03:04;;;;;;;6.03;1.30;;;23.30;67.10;;;;;;10401808;28;20244;-53
2023/10/30 18:08:07;;;;;;;3.83;1.33;;;23.30;67.20;;;;;;10402469;28;20270;-56
2023/10/30 18:13:13;;;;;;;6.47;1.35;;;23.30;67.10;;;;;;10409850;28;20208;-54
2023/10/30 18:18:16;;;;;;;5.55;1.20;;;23.30;67.10;;;;;;10403113;28;20228;-54
2023/10/30 18:23:20;;;;;;;3.38;1.20;;;23.30;67.10;;;;;;10408237;28;20710;-54
2023/10/30 18:28:25;;;;;;;3.95;1.00;;;23.30;67.20;;;;;;10408956;28;20309;-53
2023/10/30 18:33:30;;;;;;;2.55;1.10;;;23.30;67.20;;;;;;10404205;28;20232;-56
2023/10/30 18:38:34;;;;;;;2.00;1.38;;;23.30;67.10;;;;;;10404851;28;20316;-56
2023/10/30 18:43:39;;;;;;;2.53;1.10;;;23.30;67.10;;;;;;10406792;28;20262;-50
2023/10/30 18:48:42;;;;;;;2.65;1.10;;;23.30;67.10;;;;;;10404271;28;20671;-54
2023/10/30 18:53:46;;;;;;;2.53;0.95;;;23.30;67.20;;;;;;10412860;28;20757;-53
2023/10/30 18:58:52;;;;;;;2.40;1.30;;;23.30;67.20;;;;;;10407924;28;20688;-52
2023/10/30 19:03:56;;;;;;;3.40;1.13;;;23.30;67.20;;;;;;10406223;28;20200;-52
2023/10/30 19:08:59;;;;;;;2.08;1.08;;;23.30;67.20;;;;;;10409934;28;20607;-52
2023/10/30 19:14:04;;;;;;;2.97;0.90;;;23.30;67.20;;;;;;10407905;28;20224;-55
2023/10/30 19:19:09;;;;;;;3.63;1.30;;;23.30;67.20;;;;;;10409432;28;20247;-55
2023/10/30 19:24:14;;;;;;;2.00;1.10;;;23.20;67.10;;;;;;10407050;28;20197;-56
2023/10/30 19:29:20;;;;;;;2.08;1.25;;;23.20;67.10;;;;;;10409083;28;20242;-52
2023/10/30 19:34:23;;;;;;;1.27;0.93;;;23.20;67.10;;;;;;10404905;28;20192;-58
2023/10/30 19:39:27;;;;;;;2.55;1.27;;;23.30;67.20;;;;;;10406322;28;20707;-55
2023/10/30 19:44:32;;;;;;;2.10;1.17;;;23.20;67.10;;;;;;10405685;28;20250;-53
2023/10/30 19:49:38;;;;;;;3.17;1.40;;;23.20;67.10;;;;;;10407928;28;20224;-56
2023/10/30 19:54:42;;;;;;;2.05;1.05;;;23.20;67.10;;;;;;10407140;28;20200;-54
2023/10/30 19:59:47;;;;;;;2.60;1.20;;;23.30;67.20;;;;;;10415183;28;20274;-52
2023/10/30 20:04:51;;;;;;;2.60;1.38;;;23.20;67.20;;;;;;10405478;28;20631;-52
2023/10/30 20:09:54;;;;;;;1.70;1.30;;;23.30;67.20;;;;;;10409903;28;20533;-51
2023/10/30 20:15:19;;;;;;;2.78;1.27;;;23.20;67.20;;;;;;10405661;28;20239;-62
2023/10/30 20:20:24;;;;;;;1.98;1.15;;;23.30;67.30;;;;;;10406171;28;20216;-52
2023/10/30 20:25:28;;;;;;;1.65;1.02;;;23.30;67.30;;;;;;10404713;28;20256;-55
2023/10/30 20:30:33;;;;;;;2.13;1.00;;;23.20;67.20;;;;;;10398771;28;20228;-54
2023/10/30 20:35:36;;;;;;;2.90;1.10;;;23.30;67.30;;;;;;10404303;28;20710;-52
2023/10/30 20:40:40;;;;;;;3.03;1.48;;;23.20;67.20;;;;;;10407713;28;20256;-54
2023/10/30 20:45:45;;;;;;;4.32;1.70;;;23.20;67.20;;;;;;10405563;28;20263;-54
2023/10/30 20:50:49;;;;;;;1.60;1.30;;;23.20;67.20;;;;;;10407488;28;20290;-53
2023/10/30 20:55:52;;;;;;;4.63;1.75;;;23.30;67.30;;;;;;10392646;28;20256;-56
2023/10/30 21:00:57;;;;;;;1.52;1.00;;;23.20;67.20;;;;;;10400176;28;20251;-55
2023/10/30 21:06:01;;;;;;;2.20;1.67;;;23.20;67.20;;;;;;10405467;28;20216;-51
2023/10/30 21:11:04;;;;;;;3.10;1.15;;;23.20;67.20;;;;;;10401173;28;20200;-54
2023/10/30 21:16:09;;;;;;;2.38;1.40;;;23.20;67.20;;;;;;10403574;28;20220;-55
2023/10/30 21:21:13;;;;;;;1.73;1.02;;;23.20;67.20;;;;;;10405537;28;20244;-55
2023/10/30 21:26:17;;;;;;;1.90;1.00;;;23.20;67.20;;;;;;10401771;28;20220;-60
2023/10/30 21:31:21;;;;;;;6.95;2.05;;;23.20;67.20;;;;;;10385773;28;20229;-51
2023/10/30 21:36:25;;;;;;;3.28;1.80;;;23.20;67.20;;;;;;10397474;28;20224;-48
2023/10/30 21:41:29;;;;;;;3.75;2.10;;;23.20;67.20;;;;;;10392084;28;20256;-49
2023/10/30 21:46:34;;;;;;;2.63;1.80;;;23.20;67.30;;;;;;10394470;28;20257;-51
2023/10/30 21:51:37;;;;;;;5.15;2.10;;;23.30;67.50;;;;;;10408590;28;20231;-48
2023/10/30 21:56:41;;;;;;;3.92;2.30;;;23.30;67.40;;;;;;10400829;28;20271;-48
2023/10/30 22:01:46;;;;;;;6.10;2.30;;;23.30;67.50;;;;;;10404159;28;20259;-49
2023/10/30 22:06:50;;;;;;;4.00;2.10;;;23.20;67.40;;;;;;10398399;28;20260;-50
2023/10/30 22:11:53;;;;;;;3.00;2.35;;;23.30;67.50;;;;;;10410291;28;20893;-48
2023/10/30 22:16:58;;;;;;;17.20;3.58;;;23.20;67.80;;;;;;10396781;28;20376;-49
2023/10/30 22:22:02;;;;;;;17.45;3.35;;;23.30;67.50;;;;;;10404204;28;20252;-50
2023/10/30 22:27:05;;;;;;;11.60;3.08;;;23.20;67.40;;;;;;10405626;28;20992;-48
2023/10/30 22:32:10;;;;;;;11.40;2.78;;;23.30;67.50;;;;;;10398740;28;20250;-49
2023/10/30 22:37:14;;;;;;;6.32;2.70;;;23.20;67.40;;;;;;10402139;28;20703;-49
2023/10/30 22:42:18;;;;;;;5.85;2.60;;;23.20;67.40;;;;;;10401250;28;20262;-49
2023/10/30 22:47:23;;;;;;;5.90;2.28;;;23.20;67.40;;;;;;10414519;28;20939;-48
2023/10/30 22:52:27;;;;;;;7.45;2.90;;;23.20;67.40;;;;;;10405277;28;20621;-48
2023/10/30 22:57:30;;;;;;;4.22;2.75;;;23.20;67.40;;;;;;10411282;28;20693;-49
2023/10/30 23:02:35;;;;;;;5.07;2.63;;;23.20;67.40;;;;;;10407256;28;20681;-48
2023/10/30 23:07:39;;;;;;;4.30;2.58;;;23.20;67.40;;;;;;10411767;28;20719;-48
2023/10/30 23:12:43;;;;;;;3.72;2.47;;;23.20;67.40;;;;;;10414528;28;20207;-49
2023/10/30 23:17:47;;;;;;;5.95;2.50;;;23.20;67.50;;;;;;10409484;28;20259;-49
2023/10/30 23:22:52;;;;;;;4.03;2.65;;;23.20;67.40;;;;;;10406650;28;20224;-48
2023/10/30 23:27:56;;;;;;;6.55;2.90;;;23.20;67.40;;;;;;10411185;28;20242;-48
2023/10/30 23:33:01;;;;;;;4.05;2.60;;;23.20;67.40;;;;;;10407697;28;20212;-48
2023/10/30 23:38:05;;;;;;;4.85;3.38;;;23.20;67.40;;;;;;10408441;28;20219;-48
2023/10/30 23:43:17;;;;;;;4.25;2.75;;;23.20;67.40;;;;;;10394213;28;20318;-48
2023/10/30 23:48:22;;;;;;;5.47;2.88;;;23.20;67.40;;;;;;10407722;28;20278;-48
2023/10/30 23:53:25;;;;;;;3.28;2.80;;;23.20;67.40;;;;;;10398473;28;20266;-49
2023/10/30 23:58:29;;;;;;;3.50;2.75;;;23.20;67.40;;;;;;10383639;28;20349;-48
